createdAt,value
2024-04-24T00:00:59.565Z,981
2024-04-24T00:01:59.617Z,981.2
2024-04-24T00:02:59.573Z,981.4
2024-04-24T00:03:59.617Z,981.7
2024-04-24T00:05:01.134Z,981.7
2024-04-24T00:05:59.568Z,981.4
2024-04-24T00:06:59.587Z,981.4
2024-04-24T00:07:59.572Z,981.2
2024-04-24T00:08:59.561Z,981
2024-04-24T00:09:59.565Z,981
2024-04-24T00:10:59.675Z,981.4
2024-04-24T00:11:59.671Z,981.7
2024-04-24T00:12:59.564Z,981.7
2024-04-24T00:13:59.577Z,981.7
2024-04-24T00:14:59.570Z,981.7
2024-04-24T00:15:59.560Z,981.7
2024-04-24T00:16:59.617Z,981.4
2024-04-24T00:17:59.655Z,981.4
2024-04-24T00:18:59.563Z,981.2
2024-04-24T00:19:59.587Z,981
2024-04-24T00:20:59.913Z,981
2024-04-24T00:21:59.570Z,981
2024-04-24T00:22:59.604Z,980.8
2024-04-24T00:23:59.570Z,980.8
2024-04-24T00:24:59.587Z,981
2024-04-24T00:25:59.601Z,981.2
2024-04-24T00:26:59.564Z,981.2
2024-04-24T00:27:59.589Z,981
2024-04-24T00:28:59.630Z,981
2024-04-24T00:29:59.574Z,981
2024-04-24T00:30:59.572Z,981.2
2024-04-24T00:31:59.590Z,981.4
2024-04-24T00:32:59.678Z,981.9
2024-04-24T00:33:59.647Z,981.7
2024-04-24T00:34:59.608Z,981.9
2024-04-24T00:35:59.575Z,981.9
2024-04-24T00:36:59.566Z,982.1
2024-04-24T00:37:59.620Z,982.3
2024-04-24T00:38:59.670Z,982.3
2024-04-24T00:39:59.574Z,982.7
2024-04-24T00:40:59.579Z,982.7
2024-04-24T00:41:59.616Z,982.7
2024-04-24T00:42:59.564Z,983.2
2024-04-24T00:43:59.581Z,983.2
2024-04-24T00:44:59.568Z,983.2
2024-04-24T00:45:59.564Z,983
2024-04-24T00:46:59.597Z,983.2
2024-04-24T00:47:59.627Z,983.2
2024-04-24T00:48:59.570Z,983.2
2024-04-24T00:49:59.591Z,983.4
2024-04-24T00:50:59.570Z,983.6
2024-04-24T00:51:59.576Z,983.6
2024-04-24T00:52:59.657Z,983.6
2024-04-24T00:53:59.586Z,983.6
2024-04-24T00:54:59.557Z,983.6
2024-04-24T00:55:59.592Z,983.6
2024-04-24T00:56:59.579Z,983.8
2024-04-24T00:57:59.561Z,983.6
2024-04-24T00:58:59.555Z,983.6
2024-04-24T00:59:59.592Z,983.6
2024-04-24T01:00:59.599Z,983.8
2024-04-24T01:01:59.602Z,984
2024-04-24T01:02:59.608Z,984
2024-04-24T01:03:59.599Z,984
2024-04-24T01:04:59.616Z,984
2024-04-24T01:05:59.554Z,984
2024-04-24T01:06:59.569Z,984.3
2024-04-24T01:07:59.580Z,984.3
2024-04-24T01:08:59.564Z,984
2024-04-24T01:09:59.566Z,984
2024-04-24T01:10:59.735Z,984.3
2024-04-24T01:11:59.665Z,984
2024-04-24T01:12:59.570Z,984
2024-04-24T01:13:59.603Z,984
2024-04-24T01:14:59.581Z,984.3
2024-04-24T01:15:59.559Z,984.5
2024-04-24T01:16:59.636Z,984.5
2024-04-24T01:17:59.654Z,984.5
2024-04-24T01:18:59.556Z,984.5
2024-04-24T01:19:59.590Z,984.5
2024-04-24T01:20:59.560Z,984.5
2024-04-24T01:21:59.561Z,984.5
2024-04-24T01:22:59.585Z,984.5
2024-04-24T01:23:59.566Z,984.5
2024-04-24T01:24:59.553Z,984.9
2024-04-24T01:25:59.579Z,984.9
2024-04-24T01:26:59.555Z,984.9
2024-04-24T01:27:59.585Z,984.9
2024-04-24T01:28:59.602Z,984.9
2024-04-24T01:29:59.569Z,984.9
2024-04-24T01:30:59.563Z,985.1
2024-04-24T01:31:59.646Z,984.9
2024-04-24T01:32:59.742Z,984.7
2024-04-24T01:33:59.582Z,984.7
2024-04-24T01:34:59.733Z,984.9
2024-04-24T01:35:59.560Z,985.1
2024-04-24T01:36:59.572Z,984.9
2024-04-24T01:37:59.610Z,985.1
2024-04-24T01:38:59.563Z,985.1
2024-04-24T01:39:59.563Z,985.4
2024-04-24T01:40:59.598Z,985.4
2024-04-24T01:41:59.594Z,985.4
2024-04-24T01:42:59.561Z,985.4
2024-04-24T01:43:59.699Z,985.4
2024-04-24T01:44:59.580Z,985.4
2024-04-24T01:45:59.573Z,985.4
2024-04-24T01:46:59.617Z,985.4
2024-04-24T01:47:59.660Z,985.4
2024-04-24T01:48:59.623Z,985.4
2024-04-24T01:49:59.613Z,985.4
2024-04-24T01:50:59.566Z,985.1
2024-04-24T01:51:59.564Z,984.9
2024-04-24T01:52:59.713Z,985.4
2024-04-24T01:53:59.563Z,985.4
2024-04-24T01:54:59.572Z,985.4
2024-04-24T01:55:59.584Z,985.4
2024-04-24T01:56:59.580Z,985.4
2024-04-24T01:57:59.561Z,985.1
2024-04-24T01:58:59.597Z,985.4
2024-04-24T01:59:59.585Z,985.4
2024-04-24T02:00:59.479Z,985.4
2024-04-24T02:01:59.611Z,985.6
2024-04-24T02:02:59.599Z,985.6
2024-04-24T02:03:59.583Z,985.6
2024-04-24T02:04:59.597Z,985.8
2024-04-24T02:05:59.573Z,985.8
2024-04-24T02:06:59.587Z,985.8
2024-04-24T02:07:59.675Z,985.8
2024-04-24T02:08:59.568Z,985.8
2024-04-24T02:09:59.619Z,985.8
2024-04-24T02:10:59.573Z,985.8
2024-04-24T02:12:06.928Z,985.8
2024-04-24T02:12:59.694Z,985.8
2024-04-24T02:13:59.606Z,985.8
2024-04-24T02:14:59.575Z,985.8
2024-04-24T02:15:59.569Z,985.8
2024-04-24T02:16:59.588Z,985.8
2024-04-24T02:17:59.661Z,985.8
2024-04-24T02:18:59.645Z,985.8
2024-04-24T02:19:59.622Z,985.8
2024-04-24T02:20:59.568Z,985.8
2024-04-24T02:21:59.791Z,985.6
2024-04-24T02:22:59.604Z,985.8
2024-04-24T02:23:59.574Z,985.6
2024-04-24T02:24:59.570Z,985.6
2024-04-24T02:25:59.594Z,985.4
2024-04-24T02:26:59.566Z,985.4
2024-04-24T02:27:59.561Z,985.1
2024-04-24T02:28:59.592Z,984.9
2024-04-24T02:29:59.614Z,984.9
2024-04-24T02:30:59.588Z,984.5
2024-04-24T02:31:59.642Z,984.5
2024-04-24T02:32:59.752Z,984.3
2024-04-24T02:33:59.562Z,984.3
2024-04-24T02:34:59.640Z,984.3
2024-04-24T02:35:59.565Z,984
2024-04-24T02:36:59.558Z,984
2024-04-24T02:37:59.565Z,984.3
2024-04-24T02:38:59.588Z,984.5
2024-04-24T02:39:59.572Z,984.5
2024-04-24T02:40:59.598Z,984.5
2024-04-24T02:41:59.574Z,984.5
2024-04-24T02:42:59.561Z,984.5
2024-04-24T02:43:59.584Z,984.5
2024-04-24T02:44:59.602Z,984.5
2024-04-24T02:45:59.560Z,984
2024-04-24T02:46:59.600Z,984.3
2024-04-24T02:47:59.656Z,984.5
2024-04-24T02:48:59.560Z,984.5
2024-04-24T02:49:59.583Z,984.5
2024-04-24T02:50:59.563Z,984.5
2024-04-24T02:51:59.564Z,984.7
2024-04-24T02:52:59.579Z,984.9
2024-04-24T02:53:59.568Z,984.9
2024-04-24T02:54:59.564Z,984.9
2024-04-24T02:55:59.612Z,984.7
2024-04-24T02:56:59.603Z,984.9
2024-04-24T02:57:59.567Z,984.9
2024-04-24T02:58:59.617Z,984.9
2024-04-24T02:59:59.638Z,984.9
2024-04-24T03:00:59.618Z,984.9
2024-04-24T03:01:59.590Z,984.9
2024-04-24T03:02:59.742Z,984.9
2024-04-24T03:03:59.581Z,984.9
2024-04-24T03:04:59.580Z,984.9
2024-04-24T03:05:59.560Z,984.9
2024-04-24T03:06:59.564Z,985.1
2024-04-24T03:07:59.581Z,985.1
2024-04-24T03:08:59.579Z,985.1
2024-04-24T03:09:59.578Z,985.1
2024-04-24T03:10:59.653Z,985.1
2024-04-24T03:11:59.625Z,985.4
2024-04-24T03:12:59.563Z,985.1
2024-04-24T03:13:59.585Z,985.1
2024-04-24T03:14:59.566Z,984.9
2024-04-24T03:15:59.565Z,984.9
2024-04-24T03:16:59.637Z,984.7
2024-04-24T03:17:59.635Z,984.9
2024-04-24T03:18:59.562Z,984.7
2024-04-24T03:19:59.615Z,984.5
2024-04-24T03:20:59.566Z,984.5
2024-04-24T03:21:59.580Z,984.5
2024-04-24T03:22:59.594Z,984.5
2024-04-24T03:23:59.573Z,984.5
2024-04-24T03:24:59.565Z,984.5
2024-04-24T03:25:59.580Z,984.3
2024-04-24T03:26:59.566Z,984.5
2024-04-24T03:27:59.568Z,984.5
2024-04-24T03:28:59.619Z,984.5
2024-04-24T03:29:59.611Z,984.5
2024-04-24T03:30:59.563Z,984.5
2024-04-24T03:31:59.649Z,984
2024-04-24T03:32:59.804Z,984
2024-04-24T03:33:59.567Z,984
2024-04-24T03:34:59.625Z,984.3
2024-04-24T03:35:59.558Z,984.3
2024-04-24T03:36:59.570Z,984.3
2024-04-24T03:37:59.587Z,984.5
2024-04-24T03:38:59.562Z,984.3
2024-04-24T03:39:59.588Z,984.3
2024-04-24T03:40:59.575Z,984.5
2024-04-24T03:41:59.600Z,984.5
2024-04-24T03:42:59.612Z,984.5
2024-04-24T03:43:59.615Z,984.5
2024-04-24T03:44:59.564Z,984.3
2024-04-24T03:45:59.573Z,984.3
2024-04-24T03:46:59.636Z,984.3
2024-04-24T03:47:59.755Z,984.3
2024-04-24T03:48:59.561Z,984
2024-04-24T03:49:59.623Z,984
2024-04-24T03:50:59.563Z,984.3
2024-04-24T03:51:59.572Z,984.3
2024-04-24T03:52:59.591Z,984.3
2024-04-24T03:53:59.569Z,984.3
2024-04-24T03:54:59.598Z,984.3
2024-04-24T03:55:59.590Z,984.3
2024-04-24T03:56:59.564Z,984
2024-04-24T03:57:59.562Z,984
2024-04-24T03:58:59.592Z,984
2024-04-24T03:59:59.596Z,984
2024-04-24T04:00:59.604Z,984
2024-04-24T04:01:59.728Z,984.3
2024-04-24T04:02:59.658Z,984
2024-04-24T04:04:02.554Z,984
2024-04-24T04:04:59.615Z,984
2024-04-24T04:05:59.567Z,984
2024-04-24T04:06:59.570Z,984.3
2024-04-24T04:07:59.693Z,984.3
2024-04-24T04:08:59.581Z,984
2024-04-24T04:09:59.584Z,984
2024-04-24T04:10:59.624Z,984
2024-04-24T04:11:59.643Z,984
2024-04-24T04:12:59.571Z,984
2024-04-24T04:13:59.605Z,984
2024-04-24T04:14:59.584Z,984
2024-04-24T04:15:59.571Z,984
2024-04-24T04:16:59.643Z,984
2024-04-24T04:17:59.669Z,983.6
2024-04-24T04:18:59.576Z,983.6
2024-04-24T04:19:59.604Z,984
2024-04-24T04:20:59.585Z,984
2024-04-24T04:21:59.572Z,984
2024-04-24T04:22:59.617Z,983.8
2024-04-24T04:23:59.583Z,983.8
2024-04-24T04:24:59.566Z,983.6
2024-04-24T04:25:59.589Z,984
2024-04-24T04:26:59.571Z,983.8
2024-04-24T04:27:59.570Z,984
2024-04-24T04:28:59.586Z,984
2024-04-24T04:29:59.573Z,984
2024-04-24T04:30:59.570Z,983.8
2024-04-24T04:31:59.629Z,983.6
2024-04-24T04:32:59.706Z,983.6
2024-04-24T04:33:59.575Z,983.6
2024-04-24T04:34:59.650Z,983.6
2024-04-24T04:39:59.264Z,983.8
2024-04-24T04:40:59.351Z,983.8
2024-04-24T04:41:59.298Z,983.8
2024-04-24T04:42:59.265Z,984
2024-04-24T04:43:59.330Z,984
2024-04-24T04:44:59.320Z,983.8
2024-04-24T04:45:59.273Z,983.6
2024-04-24T04:46:59.319Z,983.6
2024-04-24T04:47:59.470Z,983.6
2024-04-24T04:48:59.273Z,983.6
2024-04-24T04:49:59.302Z,983.6
2024-04-24T04:50:59.290Z,983.6
2024-04-24T04:51:59.273Z,983.6
2024-04-24T04:52:59.285Z,983.6
2024-04-24T04:53:59.301Z,983.6
2024-04-24T04:54:59.280Z,983.4
2024-04-24T04:55:59.337Z,983.2
2024-04-24T04:56:59.265Z,983.4
2024-04-24T04:57:59.274Z,983.4
2024-04-24T04:58:59.305Z,983.6
2024-04-24T04:59:59.275Z,983.6
2024-04-24T05:00:59.301Z,983.6
2024-04-24T05:02:00.011Z,983.8
2024-04-24T05:02:59.307Z,983.6
2024-04-24T05:03:59.298Z,983.6
2024-04-24T05:04:59.299Z,983.6
2024-04-24T05:05:59.290Z,983.6
2024-04-24T05:06:59.317Z,983.6
2024-04-24T05:07:59.325Z,983.4
2024-04-24T05:08:59.273Z,983.6
2024-04-24T05:09:59.274Z,983.6
2024-04-24T05:10:59.350Z,983.6
2024-04-24T05:11:59.391Z,983.6
2024-04-24T05:12:59.275Z,983.6
2024-04-24T05:13:59.330Z,983.6
2024-04-24T05:14:59.285Z,983.2
2024-04-24T05:15:59.293Z,983.2
2024-04-24T05:16:59.330Z,983.2
2024-04-24T05:17:59.368Z,983.2
2024-04-24T05:18:59.341Z,983.2
2024-04-24T05:19:59.275Z,983.2
2024-04-24T05:20:59.275Z,983.2
2024-04-24T05:21:59.277Z,983.2
2024-04-24T05:22:59.336Z,983.2
2024-04-24T05:23:59.265Z,983.2
2024-04-24T05:24:59.301Z,983.2
2024-04-24T05:25:59.294Z,983
2024-04-24T05:26:59.263Z,982.7
2024-04-24T05:27:59.265Z,982.7
2024-04-24T05:28:59.298Z,982.7
2024-04-24T05:29:59.279Z,982.5
2024-04-24T05:30:59.262Z,982.5
2024-04-24T05:31:59.374Z,982.7
2024-04-24T05:32:59.362Z,982.7
2024-04-24T05:33:59.311Z,982.7
2024-04-24T05:34:59.385Z,982.7
2024-04-24T05:35:59.291Z,982.7
2024-04-24T05:36:59.271Z,982.5
2024-04-24T05:37:59.297Z,982.5
2024-04-24T05:38:59.264Z,982.5
2024-04-24T05:39:59.302Z,982.3
2024-04-24T05:40:59.297Z,982.3
2024-04-24T05:41:59.266Z,982.3
2024-04-24T05:42:59.266Z,982.3
2024-04-24T05:43:59.341Z,982.3
2024-04-24T05:44:59.261Z,982.1
2024-04-24T05:45:59.266Z,981.9
2024-04-24T05:46:59.316Z,981.9
2024-04-24T05:47:59.300Z,981.9
2024-04-24T05:48:59.299Z,981.9
2024-04-24T05:49:59.290Z,981.9
2024-04-24T05:50:59.267Z,981.9
2024-04-24T05:51:59.919Z,981.4
2024-04-24T05:52:59.283Z,981.4
2024-04-24T05:53:59.280Z,981.4
2024-04-24T05:54:59.277Z,981.4
2024-04-24T05:55:59.298Z,981.2
2024-04-24T05:56:59.271Z,981.4
2024-04-24T05:57:59.678Z,981
2024-04-24T05:58:59.307Z,981
2024-04-24T05:59:59.271Z,981
2024-04-24T06:00:59.297Z,981
2024-04-24T06:01:59.292Z,981
2024-04-24T06:02:59.715Z,981
2024-04-24T06:03:59.280Z,981
2024-04-24T06:04:59.403Z,980.8
2024-04-24T06:05:59.266Z,980.6
2024-04-24T06:06:59.270Z,980.1
2024-04-24T06:07:59.333Z,980.1
2024-04-24T06:08:59.294Z,980.4
2024-04-24T06:09:59.303Z,980.1
2024-04-24T06:10:59.341Z,979.7
2024-04-24T06:11:59.360Z,979.7
2024-04-24T06:12:59.265Z,979.3
2024-04-24T06:13:59.306Z,979.3
2024-04-24T06:14:59.263Z,979.3
2024-04-24T06:15:59.296Z,979.3
2024-04-24T06:16:59.290Z,979
2024-04-24T06:17:59.393Z,978.8
2024-04-24T06:18:59.349Z,978.6
2024-04-24T06:19:59.324Z,978
2024-04-24T06:20:59.291Z,978.4
2024-04-24T06:21:59.270Z,978.4
2024-04-24T06:22:59.322Z,978.4
2024-04-24T06:23:59.278Z,978.4
2024-04-24T06:24:59.260Z,977.7
2024-04-24T06:25:59.296Z,978
2024-04-24T06:26:59.262Z,978
2024-04-24T06:27:59.269Z,978
2024-04-24T06:28:59.284Z,977.5
2024-04-24T06:29:59.272Z,977.1
2024-04-24T06:30:59.272Z,977.3
2024-04-24T06:31:59.373Z,976.7
2024-04-24T06:32:59.399Z,977.1
2024-04-24T06:33:59.293Z,977.5
2024-04-24T06:34:59.288Z,977.7
2024-04-24T06:35:59.265Z,976.9
2024-04-24T06:36:59.263Z,977.3
2024-04-24T06:37:59.323Z,977.3
2024-04-24T06:38:59.296Z,977.3
2024-04-24T06:39:59.274Z,977.5
2024-04-24T06:40:59.295Z,977.5
2024-04-24T06:41:59.305Z,978
2024-04-24T06:42:59.264Z,978.4
2024-04-24T06:43:59.339Z,978.4
2024-04-24T06:44:59.295Z,978.6
2024-04-24T06:45:59.274Z,978.4
2024-04-24T06:46:59.305Z,978.6
2024-04-24T06:47:59.327Z,978.6
2024-04-24T06:48:59.342Z,978.6
2024-04-24T06:49:59.298Z,978.8
2024-04-24T06:50:59.268Z,978.8
2024-04-24T06:51:59.263Z,978.8
2024-04-24T06:52:59.366Z,978.8
2024-04-24T06:53:59.268Z,978.8
2024-04-24T06:54:59.281Z,979
2024-04-24T06:55:59.297Z,979.3
2024-04-24T06:56:59.270Z,979.3
2024-04-24T06:58:00.755Z,979
2024-04-24T06:58:59.329Z,979
2024-04-24T06:59:59.260Z,978.8
2024-04-24T07:00:59.335Z,978.8
2024-04-24T07:01:59.371Z,979
2024-04-24T07:02:59.267Z,979
2024-04-24T07:03:59.269Z,979
2024-04-24T07:04:59.291Z,979.3
2024-04-24T07:05:59.336Z,978.8
2024-04-24T07:06:59.275Z,978.2
2024-04-24T07:07:59.284Z,977.3
2024-04-24T07:08:59.261Z,977.5
2024-04-24T07:09:59.271Z,976.7
2024-04-24T07:10:59.373Z,977.3
2024-04-24T07:11:59.338Z,977.5
2024-04-24T07:12:59.261Z,976.7
2024-04-24T07:13:59.288Z,976.7
2024-04-24T07:14:59.260Z,977.1
2024-04-24T07:15:59.259Z,976.7
2024-04-24T07:16:59.280Z,976.2
2024-04-24T07:17:59.374Z,976.4
2024-04-24T07:18:59.321Z,976.7
2024-04-24T07:19:59.292Z,976
2024-04-24T07:20:59.271Z,974.9
2024-04-24T07:21:59.267Z,973.2
2024-04-24T07:22:59.277Z,974
2024-04-24T07:23:59.328Z,973.2
2024-04-24T07:24:59.261Z,974.3
2024-04-24T07:25:59.299Z,973.6
2024-04-24T07:26:59.263Z,972.7
2024-04-24T07:27:59.283Z,973.2
2024-04-24T07:28:59.279Z,973.4
2024-04-24T07:29:59.305Z,973.6
2024-04-24T07:30:59.263Z,973.6
2024-04-24T07:31:59.312Z,973.8
2024-04-24T07:32:59.296Z,973
2024-04-24T07:33:59.368Z,973.2
2024-04-24T07:34:59.314Z,972.1
2024-04-24T07:35:59.283Z,971.9
2024-04-24T07:36:59.272Z,972.3
2024-04-24T07:37:59.316Z,972.7
2024-04-24T07:38:59.270Z,972.3
2024-04-24T07:39:59.269Z,971.9
2024-04-24T07:40:59.405Z,971.7
2024-04-24T07:41:59.259Z,970.8
2024-04-24T07:42:59.288Z,971.2
2024-04-24T07:43:59.303Z,969.9
2024-04-24T07:44:59.281Z,971.4
2024-04-24T07:45:59.265Z,971
2024-04-24T07:47:02.394Z,971
2024-04-24T07:47:59.379Z,970.6
2024-04-24T07:48:59.295Z,968.8
2024-04-24T07:49:59.298Z,969.3
2024-04-24T07:50:59.269Z,969.3
2024-04-24T07:51:59.275Z,968
2024-04-24T07:52:59.310Z,967.5
2024-04-24T07:53:59.287Z,967.5
2024-04-24T07:54:59.288Z,966.4
2024-04-24T07:55:59.270Z,966.4
2024-04-24T07:56:59.278Z,966.7
2024-04-24T07:57:59.284Z,965.8
2024-04-24T07:58:59.332Z,966
2024-04-24T07:59:59.291Z,965.4
2024-04-24T08:00:59.328Z,965.8
2024-04-24T08:01:59.294Z,965.8
2024-04-24T08:02:59.297Z,965.4
2024-04-24T08:03:59.281Z,965.4
2024-04-24T08:04:59.294Z,964.9
2024-04-24T08:05:59.265Z,965.4
2024-04-24T08:06:59.289Z,965.8
2024-04-24T08:07:59.290Z,965.8
2024-04-24T08:08:59.281Z,966.2
2024-04-24T08:09:59.275Z,965.8
2024-04-24T08:10:59.375Z,967.1
2024-04-24T08:12:00.106Z,967.1
2024-04-24T08:12:59.267Z,968
2024-04-24T08:13:59.291Z,965.8
2024-04-24T08:14:59.274Z,967.1
2024-04-24T08:15:59.322Z,966.7
2024-04-24T08:16:59.305Z,966.2
2024-04-24T08:17:59.299Z,965.8
2024-04-24T08:18:59.290Z,964.9
2024-04-24T08:19:59.326Z,964
2024-04-24T08:20:59.275Z,965.4
2024-04-24T08:21:59.338Z,965.4
2024-04-24T08:22:59.270Z,963.8
2024-04-24T08:23:59.261Z,961.4
2024-04-24T08:24:59.275Z,961.9
2024-04-24T08:25:59.285Z,961
2024-04-24T08:26:59.266Z,962.3
2024-04-24T08:27:59.269Z,962.3
2024-04-24T08:28:59.332Z,962.1
2024-04-24T08:29:59.274Z,959.7
2024-04-24T08:30:59.271Z,960.4
2024-04-24T08:31:59.319Z,959.7
2024-04-24T08:32:59.438Z,960.1
2024-04-24T08:33:59.384Z,959.3
2024-04-24T08:34:59.300Z,959.3
2024-04-24T08:35:59.260Z,959.3
2024-04-24T08:36:59.275Z,960.1
2024-04-24T08:37:59.288Z,960.1
2024-04-24T08:38:59.267Z,959.7
2024-04-24T08:39:59.269Z,959.7
2024-04-24T08:40:59.283Z,958.6
2024-04-24T08:42:00.372Z,958.4
2024-04-24T08:42:59.272Z,958.4
2024-04-24T08:43:59.311Z,959.3
2024-04-24T08:44:59.266Z,958.8
2024-04-24T08:45:59.262Z,958.2
2024-04-24T08:46:59.281Z,959.3
2024-04-24T08:47:59.339Z,959.3
2024-04-24T08:48:59.433Z,959.3
2024-04-24T08:49:59.281Z,959.7
2024-04-24T08:50:59.267Z,959.3
2024-04-24T08:51:59.272Z,959.3
2024-04-24T08:52:59.311Z,958.4
2024-04-24T08:53:59.294Z,958.4
2024-04-24T08:54:59.317Z,958.2
2024-04-24T08:55:59.292Z,956.7
2024-04-24T08:56:59.277Z,957.5
2024-04-24T08:57:59.258Z,956.7
2024-04-24T08:58:59.273Z,956.4
2024-04-24T08:59:59.289Z,957.3
2024-04-24T09:00:59.345Z,958.6
2024-04-24T09:01:59.302Z,959
2024-04-24T09:02:59.379Z,956.4
2024-04-24T09:03:59.373Z,957.1
2024-04-24T09:04:59.359Z,956.7
2024-04-24T09:05:59.273Z,958
2024-04-24T09:07:01.277Z,957.5
2024-04-24T09:07:59.286Z,956.9
2024-04-24T09:08:59.277Z,957.5
2024-04-24T09:09:59.283Z,956.2
2024-04-24T09:10:59.308Z,955.8
2024-04-24T09:11:59.300Z,956.2
2024-04-24T09:12:59.278Z,956.7
2024-04-24T09:13:59.291Z,955.4
2024-04-24T09:14:59.260Z,956.2
2024-04-24T09:15:59.289Z,955.4
2024-04-24T09:16:59.316Z,955.4
2024-04-24T09:17:59.435Z,954.9
2024-04-24T09:18:59.348Z,954.9
2024-04-24T09:19:59.375Z,954.9
2024-04-24T09:20:59.271Z,955.6
2024-04-24T09:21:59.273Z,957.1
2024-04-24T09:22:59.318Z,954.9
2024-04-24T09:23:59.284Z,954.5
2024-04-24T09:24:59.280Z,954
2024-04-24T09:25:59.421Z,955.1
2024-04-24T09:26:59.277Z,955.4
2024-04-24T09:27:59.281Z,955.4
2024-04-24T09:28:59.308Z,954.9
2024-04-24T09:29:59.309Z,955.4
2024-04-24T09:30:59.343Z,956
2024-04-24T09:31:59.387Z,955.8
2024-04-24T09:32:59.359Z,956.9
2024-04-24T09:33:59.289Z,956.7
2024-04-24T09:34:59.324Z,955.1
2024-04-24T09:35:59.287Z,956.2
2024-04-24T09:36:59.276Z,957.1
2024-04-24T09:37:59.958Z,955.8
2024-04-24T09:38:59.298Z,956.7
2024-04-24T09:39:59.282Z,957.3
2024-04-24T09:40:59.292Z,956.7
2024-04-24T09:41:59.503Z,957.5
2024-04-24T09:42:59.266Z,957.3
2024-04-24T09:43:59.332Z,957.7
2024-04-24T09:44:59.328Z,958
2024-04-24T09:45:59.277Z,957.5
2024-04-24T09:46:59.362Z,958
2024-04-24T09:47:59.422Z,958
2024-04-24T09:48:59.463Z,958
2024-04-24T09:49:59.328Z,958.2
2024-04-24T09:50:59.269Z,958.4
2024-04-24T09:51:59.273Z,958.8
2024-04-24T09:52:59.334Z,959.3
2024-04-24T09:53:59.264Z,959.3
2024-04-24T09:54:59.304Z,959.7
2024-04-24T09:55:59.292Z,959.3
2024-04-24T09:56:59.265Z,958
2024-04-24T09:57:59.292Z,958
2024-04-24T09:58:59.282Z,959
2024-04-24T09:59:59.264Z,958
2024-04-24T10:00:59.371Z,957.7
2024-04-24T10:01:59.294Z,958
2024-04-24T10:02:59.285Z,957.5
2024-04-24T10:03:59.265Z,958
2024-04-24T10:04:59.397Z,958
2024-04-24T10:05:59.292Z,958.4
2024-04-24T10:06:59.267Z,957.5
2024-04-24T10:07:59.292Z,958.2
2024-04-24T10:08:59.286Z,958
2024-04-24T10:09:59.284Z,958
2024-04-24T10:10:59.359Z,957.5
2024-04-24T10:11:59.411Z,957.1
2024-04-24T10:12:59.281Z,956.4
2024-04-24T10:13:59.438Z,956.2
2024-04-24T10:14:59.265Z,956.7
2024-04-24T10:15:59.265Z,956.2
2024-04-24T10:16:59.306Z,957.1
2024-04-24T10:17:59.418Z,958.2
2024-04-24T10:18:59.319Z,958.4
2024-04-24T10:20:05.521Z,958
2024-04-24T10:20:59.704Z,958
2024-04-24T10:21:59.271Z,958.8
2024-04-24T10:22:59.308Z,957.5
2024-04-24T10:23:59.270Z,957.5
2024-04-24T10:24:59.267Z,956.2
2024-04-24T10:25:59.300Z,956.7
2024-04-24T10:26:59.284Z,956.4
2024-04-24T10:27:59.288Z,957.1
2024-04-24T10:28:59.324Z,957.5
2024-04-24T10:29:59.289Z,957.5
2024-04-24T10:30:59.313Z,957.3
2024-04-24T10:31:59.328Z,957.1
2024-04-24T10:32:59.417Z,955.6
2024-04-24T10:33:59.380Z,955.8
2024-04-24T10:34:59.287Z,956.2
2024-04-24T10:35:59.274Z,956.9
2024-04-24T10:36:59.269Z,956.4
2024-04-24T10:37:59.282Z,955.8
2024-04-24T10:38:59.272Z,955.8
2024-04-24T10:39:59.405Z,956
2024-04-24T10:40:59.272Z,955.8
2024-04-24T10:41:59.271Z,955.4
2024-04-24T10:42:59.283Z,956
2024-04-24T10:43:59.356Z,954.9
2024-04-24T10:44:59.285Z,954.5
2024-04-24T10:45:59.275Z,954.7
2024-04-24T10:46:59.284Z,955.4
2024-04-24T10:47:59.341Z,954.5
2024-04-24T10:48:59.404Z,954.9
2024-04-24T10:49:59.362Z,955.8
2024-04-24T10:51:01.156Z,955.4
2024-04-24T10:51:59.282Z,955.1
2024-04-24T10:52:59.321Z,954.9
2024-04-24T10:53:59.392Z,954.9
2024-04-24T10:54:59.305Z,955.6
2024-04-24T10:55:59.417Z,956.2
2024-04-24T10:56:59.283Z,956.9
2024-04-24T10:57:59.290Z,956
2024-04-24T10:58:59.306Z,956.7
2024-04-24T10:59:59.298Z,955.8
2024-04-24T11:00:59.312Z,955.8
2024-04-24T11:01:59.304Z,956
2024-04-24T11:03:02.328Z,955.8
2024-04-24T11:03:59.311Z,955.4
2024-04-24T11:04:59.308Z,956
2024-04-24T11:05:59.336Z,956
2024-04-24T11:06:59.269Z,956.2
2024-04-24T11:07:59.346Z,955.8
2024-04-24T11:08:59.266Z,955.4
2024-04-24T11:09:59.283Z,956.2
2024-04-24T11:10:59.346Z,955.8
2024-04-24T11:11:59.513Z,956.7
2024-04-24T11:12:59.265Z,956.2
2024-04-24T11:13:59.291Z,956
2024-04-24T11:14:59.281Z,955.8
2024-04-24T11:16:05.929Z,956.9
2024-04-24T11:16:59.726Z,956.7
2024-04-24T11:17:59.373Z,956.9
2024-04-24T11:18:59.301Z,956.2
2024-04-24T11:19:59.329Z,956.2
2024-04-24T11:20:59.269Z,956.7
2024-04-24T11:21:59.287Z,956.7
2024-04-24T11:22:59.343Z,957.1
2024-04-24T11:23:59.274Z,957.5
2024-04-24T11:24:59.272Z,956.7
2024-04-24T11:26:00.431Z,956.7
2024-04-24T11:26:59.281Z,955.8
2024-04-24T11:27:59.275Z,955.8
2024-04-24T11:28:59.324Z,955.4
2024-04-24T11:29:59.295Z,955.4
2024-04-24T11:30:59.269Z,955.4
2024-04-24T11:32:00.463Z,954
2024-04-24T11:32:59.405Z,954.5
2024-04-24T11:33:59.393Z,954.9
2024-04-24T11:34:59.281Z,954.5
2024-04-24T11:35:59.265Z,953.2
2024-04-24T11:36:59.263Z,953.2
2024-04-24T11:37:59.336Z,953.8
2024-04-24T11:38:59.274Z,953.6
2024-04-24T11:39:59.294Z,954
2024-04-24T11:40:59.302Z,954.5
2024-04-24T11:41:59.286Z,954.9
2024-04-24T11:42:59.280Z,954.9
2024-04-24T11:43:59.414Z,954.9
2024-04-24T11:44:59.288Z,954.9
2024-04-24T11:45:59.277Z,954.9
2024-04-24T11:46:59.348Z,955.8
2024-04-24T11:47:59.403Z,955.8
2024-04-24T11:48:59.308Z,955.6
2024-04-24T11:49:59.468Z,955.8
2024-04-24T11:50:59.322Z,955.1
2024-04-24T11:51:59.292Z,955.4
2024-04-24T11:52:59.377Z,955.4
2024-04-24T11:53:59.283Z,955.6
2024-04-24T11:54:59.342Z,956.2
2024-04-24T11:55:59.324Z,956.4
2024-04-24T11:56:59.273Z,956.2
2024-04-24T11:57:59.296Z,955.8
2024-04-24T11:58:59.328Z,955.6
2024-04-24T11:59:59.292Z,955.6
2024-04-24T12:00:59.327Z,956.2
2024-04-24T12:01:59.317Z,956.2
2024-04-24T12:02:59.335Z,956
2024-04-24T12:03:59.309Z,956.2
2024-04-24T12:04:59.296Z,956.7
2024-04-24T12:05:59.277Z,956.7
2024-04-24T12:06:59.269Z,956.4
2024-04-24T12:07:59.291Z,956.7
2024-04-24T12:08:59.319Z,957.1
2024-04-24T12:09:59.297Z,957.3
2024-04-24T12:10:59.366Z,957.5
2024-04-24T12:12:00.497Z,957.7
2024-04-24T12:12:59.274Z,958.2
2024-04-24T12:13:59.323Z,958.4
2024-04-24T12:14:59.312Z,958
2024-04-24T12:15:59.312Z,958.8
2024-04-24T12:16:59.336Z,958.2
2024-04-24T12:17:59.302Z,958
2024-04-24T12:18:59.264Z,958.2
2024-04-24T12:19:59.351Z,959.3
2024-04-24T12:21:02.296Z,959.3
2024-04-24T12:21:59.269Z,959.5
2024-04-24T12:22:59.287Z,959.7
2024-04-24T12:23:59.257Z,960.1
2024-04-24T12:24:59.294Z,959.3
2024-04-24T12:25:59.281Z,959.3
2024-04-24T12:26:59.281Z,959.5
2024-04-24T12:27:59.261Z,959.7
2024-04-24T12:28:59.305Z,959.3
2024-04-24T12:29:59.295Z,958.8
2024-04-24T12:31:00.428Z,959.3
2024-04-24T12:31:59.291Z,959.7
2024-04-24T12:32:59.367Z,960.1
2024-04-24T12:33:59.452Z,960.1
2024-04-24T12:34:59.453Z,959.3
2024-04-24T12:35:59.269Z,959.3
2024-04-24T12:36:59.264Z,958.4
2024-04-24T12:37:59.276Z,958.2
2024-04-24T12:38:59.265Z,958.4
2024-04-24T12:39:59.375Z,958
2024-04-24T12:40:59.303Z,958.4
2024-04-24T12:41:59.263Z,958.4
2024-04-24T12:42:59.296Z,958.2
2024-04-24T12:43:59.292Z,957.7
2024-04-24T12:44:59.268Z,957.5
2024-04-24T12:45:59.273Z,956.9
2024-04-24T12:46:59.299Z,957.5
2024-04-24T12:47:59.311Z,957.3
2024-04-24T12:48:59.339Z,957.5
2024-04-24T12:49:59.298Z,956.7
2024-04-24T12:50:59.285Z,957.1
2024-04-24T12:51:59.273Z,956.7
2024-04-24T12:52:59.301Z,956.2
2024-04-24T12:53:59.265Z,956.9
2024-04-24T12:54:59.308Z,956.7
2024-04-24T12:55:59.294Z,955.8
2024-04-24T12:56:59.279Z,955.8
2024-04-24T12:57:59.279Z,956.2
2024-04-24T12:58:59.292Z,955.4
2024-04-24T12:59:59.319Z,955.6
2024-04-24T13:00:59.496Z,955.8
2024-04-24T13:01:59.299Z,956.2
2024-04-24T13:02:59.273Z,957.1
2024-04-24T13:03:59.288Z,957.1
2024-04-24T13:04:59.313Z,956.7